• Join FlightAware (Why Join?)
  • Login
  • US Flag 
03:32AM EDT


 

Airport Tracker/Info


-or-


 

Live Flight TrackerFlight Track Log ✈ FLG3872 ✈ 20-Apr-2013 ✈ KDTW - KFWA

Flight Track Log - Related Links

Times and Time Zones

All times are in EDT time to prevent confusion due to time zone crossing. See the FLG3872 flight status page for this flight to view local times or setup timezone preferences in your user account.

Time Position Orientation Groundspeed Altitude Reporting Facility
EDT Latitude Longitude Course Direction KTS MPH feet Rate Location/Type
07:58PM 42.2036 -83.3556 208° Southwest 153 176 1,300  Level Cleveland Center
07:59PM 42.1983 -83.4056 262° West 182 209 3,200 1,380 Climbing Cleveland Center
08:00PM 42.2006 -83.4814 272° West 256 295 4,000 2,220 Climbing Cleveland Center
08:01PM 42.0031 -83.6741 211° Southwest  Level Estimated
08:01PM 42.1939 -83.5819 265° West 248 285 7,800  Level Cleveland Center
08:02PM 41.9506 -83.7539 217° Southwest  Level Estimated
08:03PM 41.9053 -83.8226 208° Southwest  Level Estimated
08:03PM 42.1074 -83.6998 225° Southwest  Level Estimated
08:10PM 41.7699 -84.1551 225° Southwest  Level Estimated
08:11PM 41.7215 -84.2197 225° Southwest  Level Estimated
08:12PM 41.6732 -84.2842 225° Southwest  Level Estimated
08:13PM 41.6247 -84.3487 225° Southwest  Level Estimated
08:13PM 41.3533 -84.6703 225° Southwest 356 410 10,000  Level Chicago Center
08:14PM 41.5763 -84.4130 225° Southwest  Level Estimated
08:14PM 41.2711 -84.7375 212° Southwest 354 407 10,000  Level Chicago Center
08:15PM 41.5278 -84.4773 225° Southwest  Level Estimated
08:15PM 41.2089 -84.7850 210° Southwest 298 343 8,000  Level Chicago Center
08:16PM 41.4792 -84.5415 225° Southwest  Level Estimated
08:16PM 41.1483 -84.8381 213° Southwest 272 313 4,800  Level Chicago Center
08:17PM 41.4306 -84.6055 225° Southwest  Level Estimated
08:17PM 41.0933 -84.9003 220° Southwest 263 303 3,100  Level Chicago Center
08:18PM 41.3820 -84.6695 225° Southwest  Level Estimated
08:18PM 41.0381 -84.9622 220° Southwest 261 300 3,000  Level Chicago Center
08:19PM 40.9886 -85.0158 219° Southwest 248 285 3,000  Level Chicago Center